Time;durP1;ratioP1;P1;durP2;ratioP2;P2;SDS_P1;SDS_P2;PMS_P1;PMS_P2;Temp;Humidity;BMP_temperature;BMP_pressure;BME280_temperature;BME280_humidity;BME280_pressure;Samples;Min_cycle;Max_cycle;Signal;HPM_P1;HPM_P2
2023/05/17 00:02:12;;;;;;;10.45;1.98;;;10.20;99.90;;;;;;5072266;28;20072;-81
2023/05/17 00:04:39;;;;;;;17.63;4.10;;;10.20;99.90;;;;;;5073295;28;20045;-82
2023/05/17 00:07:06;;;;;;;16.02;2.05;;;10.30;99.90;;;;;;5072117;28;20498;-81
2023/05/17 00:09:33;;;;;;;22.15;3.15;;;10.20;99.90;;;;;;5074365;28;20044;-81
2023/05/17 00:11:58;;;;;;;18.48;4.25;;;10.20;99.90;;;;;;5075659;28;20056;-81
2023/05/17 00:14:24;;;;;;;14.38;2.50;;;10.20;99.90;;;;;;5077417;28;20044;-81
2023/05/17 00:16:51;;;;;;;22.90;3.03;;;10.30;99.90;;;;;;5076866;28;20048;-81
2023/05/17 00:19:17;;;;;;;14.52;1.77;;;10.20;99.90;;;;;;5076865;28;20113;-81
2023/05/17 00:21:45;;;;;;;12.65;1.70;;;10.20;99.90;;;;;;5076789;28;20059;-81
2023/05/17 00:24:11;;;;;;;12.15;1.98;;;10.20;99.90;;;;;;5076853;28;20476;-81
2023/05/17 00:26:39;;;;;;;8.68;1.40;;;10.20;99.90;;;;;;5076464;28;20048;-82
2023/05/17 00:29:09;;;;;;;7.57;1.30;;;10.20;99.90;;;;;;5076758;28;20052;-82
2023/05/17 00:31:35;;;;;;;10.52;2.22;;;10.20;99.90;;;;;;5076402;28;20037;-81
2023/05/17 00:34:00;;;;;;;6.13;1.90;;;10.10;99.90;;;;;;5076672;28;20398;-81
2023/05/17 00:36:26;;;;;;;14.88;2.63;;;10.00;99.90;;;;;;5076546;28;20127;-81
2023/05/17 00:38:52;;;;;;;10.25;1.88;;;10.10;99.90;;;;;;5076583;28;20166;-81
2023/05/17 00:41:17;;;;;;;14.32;1.77;;;10.00;99.90;;;;;;5076608;28;20391;-81
2023/05/17 00:43:43;;;;;;;11.75;1.88;;;10.00;99.90;;;;;;5075153;28;20079;-81
2023/05/17 00:46:09;;;;;;;10.07;1.48;;;10.00;99.90;;;;;;5076501;28;20033;-81
2023/05/17 00:48:35;;;;;;;10.23;1.88;;;10.00;99.90;;;;;;5076359;28;20048;-81
2023/05/17 00:51:01;;;;;;;8.63;1.80;;;10.00;99.90;;;;;;5076310;28;20365;-81
2023/05/17 00:53:28;;;;;;;7.70;1.55;;;10.00;99.90;;;;;;5076629;28;20051;-81
2023/05/17 00:55:55;;;;;;;10.23;2.53;;;9.90;99.90;;;;;;5076112;28;20110;-81
2023/05/17 00:58:21;;;;;;;8.43;1.70;;;9.90;99.90;;;;;;5076091;28;20086;-81
2023/05/17 01:00:48;;;;;;;9.65;1.77;;;9.90;99.90;;;;;;5075113;28;20127;-81
2023/05/17 01:03:13;;;;;;;11.20;2.60;;;9.90;99.90;;;;;;5076165;28;20029;-81
2023/05/17 01:05:39;;;;;;;11.82;1.83;;;9.90;99.90;;;;;;5075718;28;20056;-81
2023/05/17 01:08:06;;;;;;;11.05;1.30;;;9.90;99.90;;;;;;5076124;28;20087;-81
2023/05/17 01:10:37;;;;;;;7.43;2.22;;;9.90;99.90;;;;;;5076044;28;20048;-81
2023/05/17 01:13:17;;;;;;;7.82;1.65;;;9.80;99.90;;;;;;5074658;28;20052;-81
2023/05/17 01:15:52;;;;;;;8.18;1.35;;;9.70;99.90;;;;;;5074748;28;20044;-81
2023/05/17 01:18:36;;;;;;;11.48;2.03;;;9.70;99.90;;;;;;5075906;28;20051;-81
2023/05/17 01:21:25;;;;;;;11.63;1.52;;;9.80;99.90;;;;;;5075497;28;20037;-81
2023/05/17 01:23:58;;;;;;;7.60;1.70;;;9.70;99.90;;;;;;5075772;28;20119;-81
2023/05/17 01:26:39;;;;;;;;;;;9.70;99.90;;;;;;5075917;28;20052;-81
2023/05/17 01:29:07;;;;;;;9.27;1.67;;;9.70;99.90;;;;;;5075702;28;20003;-81
2023/05/17 01:31:38;;;;;;;11.15;1.52;;;9.70;99.90;;;;;;5075671;28;20103;-81
2023/05/17 01:34:08;;;;;;;8.60;1.75;;;9.70;99.90;;;;;;5075529;28;20412;-81
2023/05/17 01:36:34;;;;;;;9.60;1.80;;;9.70;99.90;;;;;;5074297;28;20036;-81
2023/05/17 01:39:00;;;;;;;11.38;1.85;;;9.70;99.90;;;;;;5075335;28;20109;-81
2023/05/17 01:41:33;;;;;;;12.38;2.10;;;9.70;99.90;;;;;;5074773;28;20052;-81
2023/05/17 01:44:19;;;;;;;10.10;1.50;;;9.60;99.90;;;;;;5075582;28;20048;-81
2023/05/17 01:46:46;;;;;;;14.60;1.55;;;9.70;99.90;;;;;;5074284;28;20053;-81
2023/05/17 01:49:25;;;;;;;11.65;2.00;;;9.70;99.90;;;;;;5075224;28;20055;-81
2023/05/17 01:52:11;;;;;;;10.40;2.03;;;9.80;99.90;;;;;;5075304;28;20094;-81
2023/05/17 01:55:06;;;;;;;10.23;1.73;;;9.80;99.90;;;;;;5075207;28;20131;-82
2023/05/17 01:57:35;;;;;;;14.00;2.27;;;9.80;99.90;;;;;;5075053;28;20093;-81
2023/05/17 02:00:05;;;;;;;13.18;2.47;;;9.80;99.90;;;;;;5073849;28;20055;-81
2023/05/17 02:02:31;;;;;;;9.95;1.50;;;9.70;99.90;;;;;;5074981;28;20037;-82
2023/05/17 02:04:57;;;;;;;8.25;1.92;;;9.70;99.90;;;;;;5074959;28;20055;-81
2023/05/17 02:07:23;;;;;;;11.57;1.85;;;9.70;99.90;;;;;;5073517;28;20563;-81
2023/05/17 02:09:50;;;;;;;14.00;2.67;;;9.70;99.90;;;;;;5074890;28;20123;-82
2023/05/17 02:12:15;;;;;;;15.02;2.47;;;9.70;99.90;;;;;;5074803;28;20045;-81
2023/05/17 02:14:41;;;;;;;18.58;2.65;;;9.60;99.90;;;;;;5073339;28;20047;-81
2023/05/17 02:17:07;;;;;;;10.32;2.08;;;9.60;99.90;;;;;;5073273;28;20055;-81
2023/05/17 02:19:33;;;;;;;6.80;1.42;;;9.50;99.90;;;;;;5074408;28;20048;-81
2023/05/17 02:21:58;;;;;;;14.57;1.83;;;9.50;99.90;;;;;;5074579;28;20047;-81
2023/05/17 02:24:24;;;;;;;15.45;2.20;;;9.50;99.90;;;;;;5073540;28;20483;-81
2023/05/17 02:26:50;;;;;;;7.03;1.55;;;9.40;99.90;;;;;;5073107;28;20052;-81
2023/05/17 02:29:16;;;;;;;7.82;1.85;;;9.50;99.90;;;;;;5074310;28;20044;-81
2023/05/17 02:31:41;;;;;;;7.82;1.70;;;9.40;99.90;;;;;;5073683;28;20099;-81
2023/05/17 02:34:07;;;;;;;10.48;1.60;;;9.40;99.90;;;;;;5072996;28;20506;-81
2023/05/17 02:36:33;;;;;;;7.50;1.30;;;9.40;99.90;;;;;;5074392;28;20052;-81
2023/05/17 02:38:59;;;;;;;10.65;1.80;;;9.30;99.90;;;;;;5073030;28;20054;-81
2023/05/17 02:41:24;;;;;;;8.68;2.00;;;9.30;99.90;;;;;;5074217;28;20037;-81
2023/05/17 02:43:50;;;;;;;6.85;1.30;;;9.30;99.90;;;;;;5074445;28;20594;-81
2023/05/17 02:46:16;;;;;;;9.00;1.77;;;9.40;99.90;;;;;;5072765;28;20064;-81
2023/05/17 02:48:41;;;;;;;8.63;1.38;;;9.30;99.90;;;;;;5073971;28;20097;-81
2023/05/17 02:51:07;;;;;;;6.20;1.20;;;9.30;99.90;;;;;;5074131;28;20128;-81
2023/05/17 02:53:32;;;;;;;9.30;1.58;;;9.30;99.90;;;;;;5072719;28;20068;-81
2023/05/17 02:55:58;;;;;;;3.92;1.00;;;9.30;99.90;;;;;;5073977;28;20040;-81
2023/05/17 02:58:25;;;;;;;8.43;1.60;;;9.30;99.90;;;;;;5073836;28;20044;-81
2023/05/17 03:00:50;;;;;;;10.02;1.67;;;9.30;99.90;;;;;;5073861;28;20049;-81
2023/05/17 03:03:16;;;;;;;7.53;1.50;;;9.10;99.90;;;;;;5072758;28;20438;-81
2023/05/17 03:05:42;;;;;;;10.60;1.65;;;9.20;99.90;;;;;;5073922;28;20093;-81
2023/05/17 03:08:07;;;;;;;8.95;1.38;;;9.20;99.90;;;;;;5073774;28;20048;-81
2023/05/17 03:10:33;;;;;;;8.45;1.50;;;9.30;99.90;;;;;;5072566;28;20542;-81
2023/05/17 03:12:59;;;;;;;7.47;1.20;;;9.20;99.90;;;;;;5073562;28;20110;-81
2023/05/17 03:15:28;;;;;;;10.00;1.52;;;9.20;99.90;;;;;;5073981;28;20098;-81
2023/05/17 03:17:54;;;;;;;5.90;1.42;;;9.20;99.90;;;;;;5073644;28;20044;-81
2023/05/17 03:20:20;;;;;;;7.40;1.40;;;9.20;99.90;;;;;;5073740;28;20041;-81
2023/05/17 03:22:46;;;;;;;5.60;1.40;;;9.10;99.90;;;;;;5072442;28;20045;-81
2023/05/17 03:25:12;;;;;;;8.23;1.80;;;9.10;99.90;;;;;;5072536;28;20044;-81
2023/05/17 03:27:37;;;;;;;8.43;1.58;;;9.10;99.90;;;;;;5073107;28;20052;-81
2023/05/17 03:30:03;;;;;;;12.43;1.73;;;9.10;99.90;;;;;;5073230;28;20453;-81
2023/05/17 03:32:32;;;;;;;11.57;1.75;;;9.00;99.90;;;;;;5073394;28;20113;-81
2023/05/17 03:34:58;;;;;;;11.70;2.00;;;9.00;99.90;;;;;;5071383;28;20391;-81
2023/05/17 03:37:24;;;;;;;9.10;1.85;;;9.00;99.90;;;;;;5072473;28;20040;-81
2023/05/17 03:39:49;;;;;;;12.63;1.63;;;9.00;99.90;;;;;;5073145;28;20044;-81
2023/05/17 03:42:15;;;;;;;5.93;1.48;;;9.00;99.90;;;;;;5073214;28;20044;-81
2023/05/17 03:44:41;;;;;;;3.47;1.23;;;9.00;99.90;;;;;;5075657;28;20392;-81
2023/05/17 03:47:07;;;;;;;14.20;1.58;;;9.00;99.90;;;;;;5075988;28;20052;-81
2023/05/17 03:49:33;;;;;;;6.03;1.33;;;9.00;99.90;;;;;;5077253;28;20042;-81
2023/05/17 03:51:59;;;;;;;10.32;1.75;;;9.00;99.90;;;;;;5077188;28;20044;-81
2023/05/17 03:54:25;;;;;;;7.28;1.23;;;9.00;99.90;;;;;;5077311;28;20045;-81
2023/05/17 03:56:50;;;;;;;5.47;1.02;;;9.00;99.90;;;;;;5077398;28;20080;-81
2023/05/17 03:59:16;;;;;;;8.13;1.20;;;9.00;99.90;;;;;;5077035;28;20123;-81
2023/05/17 04:01:42;;;;;;;9.98;1.40;;;9.00;99.90;;;;;;5077040;28;20055;-81
2023/05/17 04:04:08;;;;;;;8.50;1.35;;;9.00;99.90;;;;;;5075845;28;20048;-81
2023/05/17 04:06:34;;;;;;;8.43;1.17;;;9.00;99.90;;;;;;5075843;28;20131;-80
2023/05/17 04:09:00;;;;;;;5.45;1.17;;;8.90;99.90;;;;;;5076731;28;20135;-81
2023/05/17 04:11:27;;;;;;;9.98;1.30;;;8.90;99.90;;;;;;5076877;28;20503;-81
2023/05/17 04:13:53;;;;;;;4.32;0.88;;;9.00;99.90;;;;;;5076747;28;20048;-81
2023/05/17 04:16:20;;;;;;;6.15;1.13;;;9.00;99.90;;;;;;5075746;28;20552;-81
2023/05/17 04:18:45;;;;;;;8.63;1.25;;;9.00;99.90;;;;;;5077137;28;20053;-81
2023/05/17 04:21:11;;;;;;;8.55;1.65;;;9.00;99.90;;;;;;5076661;28;20109;-81
2023/05/17 04:23:37;;;;;;;10.00;1.90;;;9.00;99.90;;;;;;5075264;28;20044;-81
2023/05/17 04:26:04;;;;;;;5.88;0.93;;;9.00;99.90;;;;;;5076610;28;20069;-81
2023/05/17 04:28:33;;;;;;;8.13;1.83;;;8.90;99.90;;;;;;5076374;28;20405;-81
2023/05/17 04:31:06;;;;;;;6.25;1.52;;;9.00;99.90;;;;;;5076490;28;20052;-81
2023/05/17 04:33:32;;;;;;;7.07;1.20;;;8.90;99.90;;;;;;5075269;28;20048;-81
2023/05/17 04:36:02;;;;;;;8.73;1.35;;;9.00;99.90;;;;;;5074995;28;20085;-81
2023/05/17 04:38:30;;;;;;;6.65;1.50;;;9.00;99.90;;;;;;5075053;28;20052;-81
2023/05/17 04:41:03;;;;;;;6.75;1.15;;;9.00;99.90;;;;;;5076368;28;20048;-81
2023/05/17 04:43:29;;;;;;;10.93;1.65;;;9.10;99.90;;;;;;5076490;28;20043;-81
2023/05/17 04:45:59;;;;;;;13.95;1.52;;;9.10;99.90;;;;;;5075376;28;20053;-81
2023/05/17 04:48:26;;;;;;;9.95;2.42;;;9.10;99.90;;;;;;5076030;28;20045;-81
2023/05/17 04:51:02;;;;;;;6.65;1.10;;;9.10;99.90;;;;;;5076271;28;20088;-81
2023/05/17 04:53:29;;;;;;;8.27;1.65;;;9.20;99.90;;;;;;5076102;28;20052;-81
2023/05/17 04:55:57;;;;;;;7.80;1.38;;;9.30;99.90;;;;;;5075211;28;20430;-81
2023/05/17 04:58:24;;;;;;;7.50;1.05;;;9.30;99.90;;;;;;5076014;28;20040;-81
2023/05/17 05:00:51;;;;;;;9.52;1.52;;;9.30;99.90;;;;;;5076090;28;20118;-81
2023/05/17 05:03:17;;;;;;;14.68;1.65;;;9.30;99.90;;;;;;5075855;28;20047;-81
2023/05/17 05:05:44;;;;;;;20.98;2.13;;;9.30;99.90;;;;;;5074600;28;20514;-80
2023/05/17 05:08:10;;;;;;;13.27;2.28;;;9.30;99.90;;;;;;5075971;28;20123;-81
2023/05/17 05:10:35;;;;;;;11.70;1.80;;;9.30;99.90;;;;;;5075854;28;20071;-81
2023/05/17 05:13:01;;;;;;;14.25;2.22;;;9.30;99.90;;;;;;5075879;28;20102;-81
2023/05/17 05:15:27;;;;;;;10.68;1.67;;;9.30;99.90;;;;;;5075811;28;20093;-81
2023/05/17 05:17:52;;;;;;;17.80;2.70;;;9.30;99.90;;;;;;5076027;28;20052;-80
2023/05/17 05:20:18;;;;;;;9.02;1.50;;;9.30;99.90;;;;;;5075771;28;20041;-81
2023/05/17 05:22:44;;;;;;;12.25;1.75;;;9.30;99.90;;;;;;5075792;28;20048;-80
2023/05/17 05:25:10;;;;;;;6.38;1.50;;;9.10;99.90;;;;;;5074281;28;20102;-81
2023/05/17 05:27:37;;;;;;;11.98;2.17;;;9.20;99.90;;;;;;5075124;28;20059;-81
2023/05/17 05:30:03;;;;;;;15.27;2.60;;;9.10;99.90;;;;;;5075526;28;20044;-80
2023/05/17 05:32:29;;;;;;;12.55;2.55;;;9.10;99.90;;;;;;5074388;28;20491;-81
2023/05/17 05:34:56;;;;;;;12.27;2.08;;;9.10;99.90;;;;;;5074227;28;20052;-80
2023/05/17 05:37:21;;;;;;;13.93;1.77;;;9.20;99.90;;;;;;5075504;28;20073;-82
2023/05/17 05:39:50;;;;;;;7.70;1.70;;;9.30;99.90;;;;;;5074197;28;20040;-80
2023/05/17 05:42:17;;;;;;;17.35;2.40;;;9.30;99.90;;;;;;5075391;28;20403;-80
2023/05/17 05:44:42;;;;;;;12.95;2.03;;;9.40;99.90;;;;;;5073811;28;20051;-81
2023/05/17 05:47:11;;;;;;;10.45;2.25;;;9.40;99.90;;;;;;5075161;28;20044;-81
2023/05/17 05:49:37;;;;;;;7.90;1.98;;;9.50;99.90;;;;;;5075178;28;20051;-81
2023/05/17 05:52:05;;;;;;;9.20;2.08;;;9.40;99.90;;;;;;5073985;28;20037;-81
2023/05/17 05:54:31;;;;;;;10.73;2.17;;;9.40;99.90;;;;;;5073703;28;20132;-82
2023/05/17 05:56:58;;;;;;;10.15;2.05;;;9.50;99.90;;;;;;5074962;28;20162;-82
2023/05/17 05:59:27;;;;;;;12.55;1.75;;;9.70;99.90;;;;;;5075001;28;20119;-82
2023/05/17 06:01:52;;;;;;;8.07;2.55;;;9.80;99.90;;;;;;5074735;28;20153;-81
2023/05/17 06:04:18;;;;;;;9.05;1.95;;;9.90;99.90;;;;;;5074575;28;20047;-81
2023/05/17 06:06:44;;;;;;;9.93;3.20;;;10.00;99.90;;;;;;5072209;28;20037;-82
2023/05/17 06:09:11;;;;;;;13.75;2.10;;;10.10;99.90;;;;;;5073302;28;20381;-79
2023/05/17 06:11:37;;;;;;;13.32;2.45;;;10.40;99.90;;;;;;5065394;28;20041;-80
2023/05/17 06:14:03;;;;;;;12.00;1.80;;;10.50;99.90;;;;;;5053434;28;20045;-82
2023/05/17 06:16:28;;;;;;;13.15;1.98;;;10.50;99.90;;;;;;5052998;28;20110;-82
2023/05/17 06:18:54;;;;;;;8.07;1.73;;;10.40;99.90;;;;;;5054447;28;20079;-80
2023/05/17 06:21:20;;;;;;;12.60;2.05;;;10.30;99.90;;;;;;5052968;28;20052;-81
2023/05/17 06:23:46;;;;;;;10.90;1.90;;;10.30;99.90;;;;;;5054233;28;20037;-82
2023/05/17 06:26:15;;;;;;;10.88;1.95;;;10.30;99.90;;;;;;5053808;28;20049;-80
2023/05/17 06:28:44;;;;;;;7.18;1.55;;;10.50;99.90;;;;;;5052697;28;20462;-81
2023/05/17 06:31:10;;;;;;;12.23;1.90;;;10.60;99.90;;;;;;5054276;28;20041;-81
2023/05/17 06:33:36;;;;;;;7.35;1.52;;;10.80;99.90;;;;;;5052716;28;20075;-81
2023/05/17 06:36:02;;;;;;;10.07;1.40;;;10.90;99.90;;;;;;5052839;28;20049;-81
2023/05/17 06:38:27;;;;;;;10.23;1.88;;;11.00;99.90;;;;;;5052867;28;20407;-81
2023/05/17 06:40:54;;;;;;;12.57;2.38;;;10.90;99.90;;;;;;5053907;28;20469;-82
2023/05/17 06:43:21;;;;;;;14.60;2.08;;;10.90;99.90;;;;;;5054096;28;20040;-85
2023/05/17 06:45:46;;;;;;;13.75;1.88;;;10.90;99.90;;;;;;5053922;28;20052;-81
2023/05/17 06:48:12;;;;;;;12.95;2.33;;;10.90;99.90;;;;;;5053527;28;20045;-81
2023/05/17 06:50:38;;;;;;;11.90;2.00;;;10.90;99.90;;;;;;5052973;28;20191;-81
2023/05/17 06:53:04;;;;;;;15.05;2.20;;;10.90;99.90;;;;;;5052388;28;20057;-81
2023/05/17 06:55:30;;;;;;;15.38;2.05;;;10.80;99.90;;;;;;5052243;28;20124;-81
2023/05/17 06:57:56;;;;;;;13.15;2.13;;;10.90;99.90;;;;;;5053763;28;20041;-81
2023/05/17 07:00:21;;;;;;;9.20;1.45;;;10.90;99.90;;;;;;5053513;28;20053;-78
2023/05/17 07:02:47;;;;;;;8.55;2.25;;;11.00;99.90;;;;;;5053432;28;20539;-81
2023/05/17 07:05:13;;;;;;;11.95;2.30;;;11.00;99.90;;;;;;5053820;28;20122;-78
2023/05/17 07:07:40;;;;;;;9.07;2.08;;;10.90;99.90;;;;;;5053474;28;20443;-80
2023/05/17 07:10:06;;;;;;;14.25;2.92;;;11.00;99.90;;;;;;5053143;28;20397;-81
2023/05/17 07:12:32;;;;;;;11.38;2.15;;;10.90;99.90;;;;;;5069185;28;20477;-81
2023/05/17 07:14:58;;;;;;;11.23;2.17;;;10.90;99.90;;;;;;5053592;28;20056;-80
2023/05/17 07:17:24;;;;;;;11.45;1.98;;;10.90;99.90;;;;;;5052221;28;20128;-81
2023/05/17 07:19:51;;;;;;;11.88;2.53;;;10.90;99.90;;;;;;5052783;28;20447;-81
2023/05/17 07:22:24;;;;;;;9.43;1.80;;;10.90;99.90;;;;;;5051850;28;20386;-81
2023/05/17 07:24:50;;;;;;;13.05;2.00;;;11.00;99.90;;;;;;5068503;28;20147;-81
2023/05/17 07:27:17;;;;;;;13.40;1.50;;;11.20;99.90;;;;;;5051449;28;20560;-81
2023/05/17 07:29:45;;;;;;;10.75;1.77;;;11.40;99.90;;;;;;5035323;28;20048;-81
2023/05/17 07:32:11;;;;;;;10.27;1.65;;;11.50;99.90;;;;;;5053052;28;20463;-81
2023/05/17 07:34:36;;;;;;;8.90;1.83;;;11.60;99.90;;;;;;5052030;28;20053;-82
2023/05/17 07:37:02;;;;;;;10.90;1.30;;;11.60;99.90;;;;;;5051715;28;20496;-81
2023/05/17 07:39:28;;;;;;;7.90;1.65;;;11.60;99.90;;;;;;5051911;28;20044;-81
2023/05/17 07:41:54;;;;;;;10.10;1.80;;;11.60;99.90;;;;;;5051748;28;20045;-81
2023/05/17 07:44:21;;;;;;;6.68;1.48;;;11.70;99.90;;;;;;5051937;28;20071;-80
2023/05/17 07:46:47;;;;;;;12.57;2.78;;;11.90;99.90;;;;;;5053038;28;20400;-81
2023/05/17 07:49:15;;;;;;;8.57;1.73;;;11.90;99.90;;;;;;5053170;28;20045;-80
2023/05/17 07:51:41;;;;;;;12.45;1.35;;;12.00;99.90;;;;;;5052724;28;20045;-80
2023/05/17 07:54:07;;;;;;;8.98;1.92;;;12.20;99.90;;;;;;5051875;28;20511;-80
2023/05/17 07:56:32;;;;;;;10.27;2.08;;;12.20;99.90;;;;;;5051729;28;20039;-81
2023/05/17 07:58:59;;;;;;;8.20;1.52;;;12.10;99.90;;;;;;5053006;28;20116;-83
2023/05/17 08:01:25;;;;;;;15.18;1.73;;;11.90;99.90;;;;;;5052787;28;20052;-82
2023/05/17 08:03:51;;;;;;;13.23;2.00;;;11.90;99.90;;;;;;5053164;28;20071;-81
2023/05/17 08:06:17;;;;;;;12.93;2.08;;;11.80;99.90;;;;;;5053048;28;20044;-81
2023/05/17 08:08:43;;;;;;;9.68;1.45;;;11.60;99.90;;;;;;5053107;28;20099;-82
2023/05/17 08:11:13;;;;;;;14.98;1.95;;;11.70;99.90;;;;;;5053185;28;20037;-82
2023/05/17 08:13:38;;;;;;;11.32;1.70;;;11.70;99.90;;;;;;5051579;28;20247;-82
2023/05/17 08:16:08;;;;;;;9.27;1.38;;;11.70;99.90;;;;;;5051651;28;20559;-83
2023/05/17 08:18:34;;;;;;;5.32;1.48;;;11.80;99.90;;;;;;5051826;28;20048;-84
2023/05/17 08:21:00;;;;;;;6.28;1.38;;;12.00;99.90;;;;;;5051489;28;20047;-82
2023/05/17 08:23:27;;;;;;;12.57;1.63;;;12.10;99.90;;;;;;5052757;28;20123;-81
2023/05/17 08:25:56;;;;;;;7.18;2.25;;;12.20;99.90;;;;;;5053052;28;20076;-81
2023/05/17 08:28:23;;;;;;;10.63;1.30;;;12.30;99.90;;;;;;5052545;28;20142;-81
2023/05/17 08:30:49;;;;;;;10.75;1.27;;;12.50;99.90;;;;;;5053498;28;20146;-82
2023/05/17 08:33:14;;;;;;;9.40;1.33;;;12.80;99.90;;;;;;5056500;28;20461;-82
2023/05/17 08:35:40;;;;;;;6.47;1.20;;;12.90;99.90;;;;;;5056469;28;20131;-82
2023/05/17 08:38:07;;;;;;;5.38;1.20;;;13.00;99.90;;;;;;5055327;28;20100;-82
2023/05/17 08:40:33;;;;;;;9.57;1.88;;;13.10;99.90;;;;;;5056326;28;20048;-82
2023/05/17 08:42:59;;;;;;;7.82;1.30;;;13.10;99.90;;;;;;5056186;28;20094;-84
2023/05/17 08:45:26;;;;;;;6.88;1.35;;;13.00;99.90;;;;;;5056222;28;20435;-82
2023/05/17 08:47:53;;;;;;;8.40;1.75;;;12.80;99.90;;;;;;5056045;28;20124;-82
2023/05/17 08:50:18;;;;;;;7.35;1.20;;;12.90;99.90;;;;;;5055594;28;20573;-82
2023/05/17 08:52:45;;;;;;;8.20;1.83;;;12.90;99.90;;;;;;5056381;28;20548;-82
2023/05/17 08:55:13;;;;;;;13.23;1.65;;;13.00;99.90;;;;;;5055059;28;20077;-82
2023/05/17 08:57:43;;;;;;;7.97;1.23;;;13.00;99.90;;;;;;5055304;28;20099;-82
2023/05/17 09:00:14;;;;;;;8.93;1.30;;;12.80;99.90;;;;;;5056079;28;20037;-82
2023/05/17 09:02:41;;;;;;;9.18;1.85;;;12.70;99.90;;;;;;5056068;28;20040;-82
2023/05/17 09:05:07;;;;;;;10.27;1.55;;;12.50;99.90;;;;;;5055802;28;20073;-82
2023/05/17 09:07:34;;;;;;;9.88;1.70;;;12.50;99.90;;;;;;5056032;28;20049;-82
2023/05/17 09:10:04;;;;;;;8.35;1.45;;;12.50;99.90;;;;;;5055855;28;20083;-82
2023/05/17 09:12:33;;;;;;;7.50;1.40;;;12.70;99.90;;;;;;5054462;28;20049;-82
2023/05/17 09:15:13;;;;;;;14.68;1.90;;;12.70;99.90;;;;;;5054624;28;20408;-82
2023/05/17 09:17:40;;;;;;;10.15;1.42;;;12.80;99.90;;;;;;5055679;28;20080;-82
2023/05/17 09:20:07;;;;;;;13.32;1.83;;;12.80;99.90;;;;;;5055725;28;20041;-82
2023/05/17 09:22:33;;;;;;;9.30;1.55;;;12.90;99.90;;;;;;5055548;28;20115;-82
2023/05/17 09:25:03;;;;;;;7.80;1.20;;;13.10;99.90;;;;;;5055435;28;20052;-82
2023/05/17 09:27:32;;;;;;;6.80;1.40;;;13.10;99.90;;;;;;5055125;28;20087;-82
2023/05/17 09:29:58;;;;;;;11.00;2.08;;;13.20;99.90;;;;;;5055244;28;20053;-82
2023/05/17 09:32:24;;;;;;;11.25;1.83;;;13.20;99.90;;;;;;5055581;28;20037;-82
2023/05/17 09:34:50;;;;;;;9.68;2.05;;;13.30;99.90;;;;;;5055624;28;20396;-82
2023/05/17 09:37:19;;;;;;;6.90;2.10;;;13.50;99.90;;;;;;5054250;28;20135;-82
2023/05/17 09:39:46;;;;;;;10.30;1.30;;;13.80;99.90;;;;;;5055270;28;20077;-82
2023/05/17 09:42:13;;;;;;;6.35;1.55;;;14.00;99.90;;;;;;5055093;28;20049;-82
2023/05/17 09:44:52;;;;;;;10.88;1.67;;;14.10;99.90;;;;;;5055298;28;20088;-82
2023/05/17 09:47:25;;;;;;;11.93;1.52;;;14.10;99.90;;;;;;5053880;28;20049;-82
2023/05/17 09:49:52;;;;;;;9.70;1.77;;;14.00;99.90;;;;;;5054201;28;20081;-82
2023/05/17 09:52:22;;;;;;;11.93;2.20;;;13.70;99.90;;;;;;5053687;28;20044;-82
2023/05/17 09:54:53;;;;;;;11.70;1.83;;;13.70;99.90;;;;;;5055051;28;20484;-82
2023/05/17 09:57:19;;;;;;;8.23;2.17;;;13.80;99.90;;;;;;5055179;28;20037;-83
2023/05/17 09:59:46;;;;;;;9.77;1.83;;;14.10;99.90;;;;;;5054996;28;20033;-82
2023/05/17 10:02:25;;;;;;;13.88;2.10;;;14.50;99.90;;;;;;5054169;28;20051;-82
2023/05/17 10:04:54;;;;;;;7.80;1.35;;;14.60;99.90;;;;;;5053638;28;20502;-82
2023/05/17 10:07:24;;;;;;;10.77;1.58;;;14.60;99.90;;;;;;5054545;28;20380;-82
2023/05/17 10:09:54;;;;;;;6.57;1.50;;;14.30;99.90;;;;;;5054510;28;20411;-83
2023/05/17 10:12:28;;;;;;;7.55;1.50;;;14.60;99.90;;;;;;5054784;28;20123;-82
2023/05/17 10:14:55;;;;;;;7.45;1.40;;;14.60;99.90;;;;;;5054621;28;20422;-82
2023/05/17 10:17:22;;;;;;;7.97;1.63;;;14.60;99.90;;;;;;5086864;28;20131;-83
2023/05/17 10:19:48;;;;;;;10.70;1.60;;;14.40;99.90;;;;;;5054373;28;20086;-82
2023/05/17 10:22:15;;;;;;;10.38;1.95;;;14.20;99.90;;;;;;5054588;28;20072;-82
2023/05/17 10:24:43;;;;;;;10.68;2.00;;;14.40;99.90;;;;;;5053550;28;20048;-82
2023/05/17 10:27:08;;;;;;;10.25;1.83;;;14.60;99.90;;;;;;5054130;28;20049;-82
2023/05/17 10:29:37;;;;;;;9.80;1.77;;;14.80;99.90;;;;;;5053035;28;20060;-83
2023/05/17 10:32:08;;;;;;;10.20;1.73;;;14.80;99.90;;;;;;5054133;28;20116;-82
2023/05/17 10:34:38;;;;;;;8.73;1.20;;;14.90;99.90;;;;;;5086576;28;20124;-83
2023/05/17 10:37:04;;;;;;;10.55;1.45;;;15.00;99.90;;;;;;5052914;28;20132;-83
2023/05/17 10:39:33;;;;;;;10.45;1.88;;;14.90;99.90;;;;;;5054106;28;20128;-82
2023/05/17 10:42:02;;;;;;;7.32;1.50;;;15.00;99.90;;;;;;5054056;28;20092;-83
2023/05/17 10:44:31;;;;;;;9.43;1.55;;;15.10;99.90;;;;;;5086420;28;20127;-83
2023/05/17 10:46:59;;;;;;;8.00;1.75;;;15.00;99.90;;;;;;5052961;28;20098;-83
2023/05/17 10:49:38;;;;;;;8.90;1.70;;;14.90;99.90;;;;;;5052884;28;20041;-83
2023/05/17 10:52:15;;;;;;;7.03;1.50;;;15.00;99.90;;;;;;5053803;28;20473;-83
2023/05/17 10:54:43;;;;;;;7.18;1.42;;;15.00;99.90;;;;;;5053292;28;20447;-83
2023/05/17 10:57:37;;;;;;;9.00;1.55;;;15.00;99.90;;;;;;5052755;28;20047;-83
2023/05/17 11:00:07;;;;;;;7.22;1.65;;;15.00;99.90;;;;;;5052611;28;20470;-82
2023/05/17 11:02:34;;;;;;;9.35;1.55;;;14.90;99.90;;;;;;5054266;28;20041;-82
2023/05/17 11:05:01;;;;;;;7.22;1.48;;;15.20;99.90;;;;;;5052397;28;20083;-79
2023/05/17 11:07:31;;;;;;;7.22;1.40;;;15.40;99.90;;;;;;5053454;28;20072;-80
2023/05/17 11:10:04;;;;;;;7.78;1.55;;;15.70;99.90;;;;;;5053784;28;20049;-79
2023/05/17 11:12:46;;;;;;;11.57;1.48;;;15.50;99.90;;;;;;5053271;28;20049;-79
2023/05/17 11:15:16;;;;;;;6.10;1.55;;;15.00;99.90;;;;;;5053533;28;20389;-80
2023/05/17 11:17:41;;;;;;;11.27;1.70;;;15.30;99.90;;;;;;5053773;28;20043;-80
2023/05/17 11:20:13;;;;;;;8.85;1.38;;;15.30;99.90;;;;;;5052396;28;20041;-80
2023/05/17 11:22:54;;;;;;;8.38;1.58;;;15.40;99.90;;;;;;5052259;28;20107;-81
2023/05/17 11:25:20;;;;;;;10.02;1.90;;;15.30;99.90;;;;;;5053618;28;20041;-78
2023/05/17 11:27:51;;;;;;;11.50;1.40;;;15.70;99.90;;;;;;5053070;28;20496;-84
2023/05/17 11:30:18;;;;;;;7.70;2.75;;;15.80;99.90;;;;;;5053641;28;20042;-83
2023/05/17 11:33:00;;;;;;;9.38;1.67;;;15.90;99.90;;;;;;5053497;28;20049;-83
2023/05/17 11:35:28;;;;;;;10.00;1.70;;;16.10;99.90;;;;;;5053541;28;20084;-83
2023/05/17 11:38:20;;;;;;;10.68;1.70;;;15.90;99.90;;;;;;5053528;28;20115;-82
2023/05/17 11:40:52;;;;;;;10.82;1.85;;;15.70;99.90;;;;;;5053476;28;20037;-82
2023/05/17 11:43:29;;;;;;;9.68;1.60;;;15.60;99.90;;;;;;5084691;28;20404;-83
2023/05/17 11:46:00;;;;;;;7.32;1.88;;;15.60;99.90;;;;;;5052249;28;20049;-82
2023/05/17 11:48:26;;;;;;;8.00;1.73;;;15.50;99.90;;;;;;5051825;28;20131;-85
2023/05/17 11:50:54;;;;;;;6.00;1.27;;;15.70;99.90;;;;;;5052101;28;20048;-85
2023/05/17 11:53:20;;;;;;;10.50;1.33;;;15.90;99.90;;;;;;5053034;28;20045;-82
2023/05/17 11:55:49;;;;;;;8.50;1.80;;;15.80;99.90;;;;;;5051919;28;20370;-82
2023/05/17 11:58:22;;;;;;;7.90;1.48;;;15.60;99.90;;;;;;5053285;28;20048;-82
2023/05/17 12:00:53;;;;;;;10.30;1.67;;;15.30;99.90;;;;;;5053353;28;20076;-83
2023/05/17 12:03:28;;;;;;;6.55;1.35;;;15.30;99.90;;;;;;5053263;28;20048;-81
2023/05/17 12:06:06;;;;;;;8.75;1.50;;;15.30;99.90;;;;;;5055527;28;20071;-80
2023/05/17 12:08:35;;;;;;;14.85;2.05;;;15.20;99.90;;;;;;5055771;28;20048;-82
2023/05/17 12:11:01;;;;;;;10.82;1.50;;;15.10;99.90;;;;;;5055717;28;20045;-83
2023/05/17 12:13:32;;;;;;;6.85;1.63;;;15.30;99.90;;;;;;5056881;28;20052;-82
2023/05/17 12:16:04;;;;;;;7.70;1.73;;;14.90;99.90;;;;;;5055670;28;20044;-82
2023/05/17 12:18:39;;;;;;;7.33;1.50;;;15.10;99.90;;;;;;5055680;28;20408;-82
2023/05/17 12:21:08;;;;;;;7.30;2.10;;;15.20;99.90;;;;;;5056937;28;20299;-81
2023/05/17 12:23:39;;;;;;;7.13;1.83;;;15.20;99.90;;;;;;5056847;28;20094;-81
2023/05/17 12:26:13;;;;;;;11.93;1.65;;;15.10;99.90;;;;;;5056490;28;20060;-81
2023/05/17 12:28:44;;;;;;;10.70;1.95;;;15.10;99.90;;;;;;5056746;28;20053;-81
2023/05/17 12:31:18;;;;;;;10.82;1.75;;;15.00;99.90;;;;;;5056494;28;20491;-82
2023/05/17 12:33:46;;;;;;;9.93;1.42;;;14.90;99.90;;;;;;5056497;28;20043;-81
2023/05/17 12:36:16;;;;;;;11.93;1.83;;;14.60;99.90;;;;;;5056782;28;20150;-82
2023/05/17 12:38:43;;;;;;;16.45;1.90;;;14.60;99.90;;;;;;5055059;28;20377;-83
2023/05/17 12:41:14;;;;;;;7.35;1.40;;;14.60;99.90;;;;;;5088707;28;20045;-84
2023/05/17 12:43:42;;;;;;;4.72;1.02;;;14.80;99.90;;;;;;5056205;28;20503;-82
2023/05/17 12:46:13;;;;;;;7.00;1.60;;;14.80;99.90;;;;;;5056169;28;20120;-84
2023/05/17 12:48:42;;;;;;;7.38;1.55;;;14.80;99.90;;;;;;5056113;28;20432;-81
2023/05/17 12:51:13;;;;;;;11.07;1.80;;;14.90;99.90;;;;;;5056251;28;20048;-84